Time;durP1;ratioP1;P1;durP2;ratioP2;P2;SDS_P1;SDS_P2;PMS_P1;PMS_P2;Temp;Humidity;BMP_temperature;BMP_pressure;BME280_temperature;BME280_humidity;BME280_pressure;Samples;Min_cycle;Max_cycle;Signal;HPM_P1;HPM_P2
2022/06/09 00:01:26;;;;;;;1.67;0.10;;;;;;;26.28;46.78;99671.09;5089491;28;20032;-69
2022/06/09 00:04:21;;;;;;;0.30;0.17;;;;;;;26.26;46.81;99654.53;5087793;28;20047;-68
2022/06/09 00:06:59;;;;;;;1.93;0.20;;;;;;;26.26;46.61;99657.22;5087383;28;20061;-69
2022/06/09 00:09:30;;;;;;;0.65;0.00;;;;;;;26.27;46.61;99654.28;5089356;28;20285;-69
2022/06/09 00:11:56;;;;;;;0.60;0.00;;;;;;;26.29;46.60;99657.47;5088807;28;20040;-69
2022/06/09 00:14:22;;;;;;;1.27;0.10;;;;;;;26.29;46.52;99656.69;5077725;28;20365;-69
2022/06/09 00:16:47;;;;;;;1.23;0.10;;;;;;;26.29;46.48;99657.47;5070756;28;20514;-69
2022/06/09 00:19:16;;;;;;;1.08;0.10;;;;;;;26.29;46.46;99657.47;5082224;28;20442;-69
2022/06/09 00:21:42;;;;;;;3.20;0.10;;;;;;;26.29;46.56;99651.34;5089236;28;20034;-70
2022/06/09 00:24:08;;;;;;;1.55;0.10;;;;;;;26.30;46.41;99655.63;5070696;28;20032;-69
2022/06/09 00:26:34;;;;;;;1.27;0.10;;;;;;;26.28;46.49;99650.53;5071405;28;20059;-70
2022/06/09 00:29:00;;;;;;;1.38;0.20;;;;;;;26.29;46.35;99652.16;5088167;28;20078;-69
2022/06/09 00:31:26;;;;;;;2.80;0.10;;;;;;;26.28;46.46;99655.06;5086057;28;20074;-69
2022/06/09 00:33:51;;;;;;;0.25;0.08;;;;;;;26.28;46.39;99652.41;5083095;28;20036;-69
2022/06/09 00:36:17;;;;;;;0.10;0.10;;;;;;;26.26;46.56;99649.22;5070072;28;20468;-69
2022/06/09 00:38:42;;;;;;;1.27;0.10;;;;;;;26.25;46.63;99648.41;5077954;28;20139;-70
2022/06/09 00:41:08;;;;;;;0.20;0.10;;;;;;;26.24;46.61;99646.81;5088075;28;20400;-70
2022/06/09 00:43:34;;;;;;;1.88;0.10;;;;;;;26.24;46.43;99649.47;5089977;28;20476;-70
2022/06/09 00:46:04;;;;;;;0.60;0.03;;;;;;;26.24;46.50;99648.66;5069200;28;20035;-70
2022/06/09 00:48:51;;;;;;;1.85;0.13;;;;;;;26.22;46.46;99653.47;5069905;28;20476;-70
2022/06/09 00:51:41;;;;;;;0.20;0.00;;;;;;;26.20;46.69;99643.06;5087374;28;20039;-70
2022/06/09 00:54:12;;;;;;;1.80;0.10;;;;;;;26.21;46.61;99649.19;5079150;28;20044;-70
2022/06/09 00:56:46;;;;;;;0.88;0.00;;;;;;;26.19;46.67;99629.97;5071580;28;20023;-70
2022/06/09 00:59:15;;;;;;;0.17;0.00;;;;;;;26.19;46.52;99633.44;5089945;28;20448;-70
2022/06/09 01:01:40;;;;;;;1.95;0.10;;;;;;;26.21;46.45;99631.31;5080469;28;20020;-70
2022/06/09 01:04:10;;;;;;;0.25;0.10;;;;;;;26.22;46.48;99632.91;5089740;28;20039;-69
2022/06/09 01:06:43;;;;;;;0.25;0.05;;;;;;;26.23;46.35;99625.72;5068301;28;20029;-70
2022/06/09 01:09:14;;;;;;;1.02;0.10;;;;;;;26.24;46.37;99616.63;5068431;28;20068;-70
2022/06/09 01:11:41;;;;;;;0.30;0.00;;;;;;;26.25;46.23;99623.56;5071439;28;20032;-70
2022/06/09 01:14:10;;;;;;;0.20;0.00;;;;;;;26.26;46.30;99614.50;5089355;28;20032;-70
2022/06/09 01:16:36;;;;;;;3.25;0.10;;;;;;;26.28;46.32;99617.69;5081817;28;20024;-70
2022/06/09 01:19:28;;;;;;;0.28;0.10;;;;;;;26.25;46.14;99613.69;5086915;28;20396;-70
2022/06/09 01:22:17;;;;;;;1.50;0.08;;;;;;;26.26;46.29;99609.16;5089002;28;20586;-70
2022/06/09 01:24:53;;;;;;;0.63;0.13;;;;;;;26.26;46.32;99609.16;5077793;28;20036;-70
2022/06/09 01:27:47;;;;;;;0.73;0.10;;;;;;;26.26;46.26;99609.16;5071094;28;20037;-70
2022/06/09 01:30:19;;;;;;;0.52;0.00;;;;;;;26.26;46.30;99609.16;5086786;28;20032;-70
2022/06/09 01:32:54;;;;;;;0.70;0.10;;;;;;;26.26;46.39;99601.94;5068545;28;20038;-70
2022/06/09 01:35:35;;;;;;;1.38;0.10;;;;;;;26.24;46.28;99596.06;5067638;28;20586;-70
2022/06/09 01:38:01;;;;;;;0.10;0.00;;;;;;;26.26;46.26;99593.94;5066590;28;20051;-71
2022/06/09 01:40:28;;;;;;;0.10;0.03;;;;;;;26.27;46.27;99590.19;5085485;28;20408;-70
2022/06/09 01:42:56;;;;;;;1.10;0.00;;;;;;;26.28;46.31;99591.00;5086660;28;20035;-70
2022/06/09 01:45:34;;;;;;;0.73;0.10;;;;;;;26.25;46.46;99581.66;5089086;28;20023;-70
2022/06/09 01:48:05;;;;;;;0.55;0.10;;;;;;;26.26;46.14;99580.59;5078009;28;20107;-70
2022/06/09 01:50:33;;;;;;;0.75;0.00;;;;;;;26.27;46.33;99573.38;5068698;28;20110;-70
2022/06/09 01:53:02;;;;;;;1.08;0.10;;;;;;;26.27;46.26;99570.72;5083938;28;20047;-71
2022/06/09 01:55:29;;;;;;;0.28;0.10;;;;;;;26.27;46.36;99573.38;5078937;28;20038;-70
2022/06/09 01:57:58;;;;;;;0.40;0.20;;;;;;;26.27;46.39;99573.38;5083352;28;20395;-70
2022/06/09 02:00:25;;;;;;;0.30;0.10;;;;;;;26.26;46.29;99572.56;5068368;28;20020;-70
2022/06/09 02:03:13;;;;;;;1.35;0.10;;;;;;;26.25;46.33;99573.66;5081081;28;20491;-70
2022/06/09 02:05:43;;;;;;;0.30;0.10;;;;;;;26.26;46.15;99569.91;5088740;28;20500;-70
2022/06/09 02:08:14;;;;;;;0.15;0.10;;;;;;;26.27;46.19;99570.72;5085520;28;20046;-71
2022/06/09 02:10:44;;;;;;;0.13;0.03;;;;;;;26.27;46.24;99568.84;5082128;28;20024;-70
2022/06/09 02:13:17;;;;;;;0.20;0.00;;;;;;;26.28;46.04;99569.63;5085422;28;20040;-70
2022/06/09 02:15:46;;;;;;;0.93;0.00;;;;;;;26.29;46.12;99568.56;5088904;28;20495;-70
2022/06/09 02:18:15;;;;;;;0.17;0.00;;;;;;;26.30;46.27;99562.16;5074425;28;20094;-70
2022/06/09 02:20:52;;;;;;;0.25;0.00;;;;;;;26.30;46.16;99562.97;5069185;28;20147;-70
2022/06/09 02:23:17;;;;;;;1.88;0.00;;;;;;;26.30;46.03;99562.16;5088460;28;20028;-70
2022/06/09 02:25:43;;;;;;;0.60;0.10;;;;;;;26.30;46.04;99554.16;5081525;28;20035;-70
2022/06/09 02:28:09;;;;;;;0.25;0.10;;;;;;;26.30;46.29;99556.81;5080101;28;20088;-70
2022/06/09 02:30:36;;;;;;;0.57;0.10;;;;;;;26.30;46.16;99552.28;5080723;28;20107;-70
2022/06/09 02:33:03;;;;;;;0.55;0.10;;;;;;;26.29;46.21;99548.00;5068274;28;20112;-70
2022/06/09 02:35:29;;;;;;;0.88;0.00;;;;;;;26.29;46.17;99545.34;5067733;28;20032;-70
2022/06/09 02:37:54;;;;;;;1.00;0.10;;;;;;;26.29;46.31;99545.34;5091258;28;20024;-70
2022/06/09 02:40:20;;;;;;;0.10;0.00;;;;;;;26.29;46.34;99541.88;5085188;28;20028;-70
2022/06/09 02:42:46;;;;;;;0.73;0.00;;;;;;;26.29;46.37;99545.34;5090551;28;20044;-70
2022/06/09 02:45:16;;;;;;;0.75;0.08;;;;;;;26.28;46.31;99545.59;5092396;28;20032;-70
2022/06/09 02:47:42;;;;;;;0.30;0.00;;;;;;;26.29;46.39;99547.22;5080836;28;20495;-70
2022/06/09 02:50:08;;;;;;;0.50;0.00;;;;;;;26.28;46.28;99550.94;5092359;28;20066;-70
2022/06/09 02:52:33;;;;;;;1.73;0.10;;;;;;;26.27;46.39;99555.50;5076660;28;20116;-69
2022/06/09 02:54:59;;;;;;;1.20;0.15;;;;;;;26.27;46.42;99568.84;5074236;28;20035;-69
2022/06/09 02:57:24;;;;;;;0.43;0.00;;;;;;;26.26;46.41;99566.44;5081907;28;20035;-70
2022/06/09 02:59:53;;;;;;;0.20;0.10;;;;;;;26.25;46.51;99567.50;5072039;28;20025;-69
2022/06/09 03:02:19;;;;;;;0.20;0.00;;;;;;;26.25;46.47;99570.19;5070741;28;20594;-69
2022/06/09 03:04:45;;;;;;;0.10;0.00;;;;;;;26.25;46.59;99572.84;5071974;28;20468;-70
2022/06/09 03:07:12;;;;;;;0.40;0.00;;;;;;;26.26;46.42;99588.59;5280611;22;20066;-67
2022/06/09 03:09:38;;;;;;;0.25;0.00;;;;;;;26.25;46.41;99589.66;5070564;28;20048;-67
2022/06/09 03:12:03;;;;;;;0.20;0.00;;;;;;;26.25;46.42;99600.34;5071754;28;20052;-67
2022/06/09 03:14:29;;;;;;;0.20;0.10;;;;;;;26.25;46.44;99596.88;5071856;28;20609;-67
2022/06/09 03:16:54;;;;;;;4.00;0.10;;;;;;;26.24;46.30;99598.75;5071953;28;20384;-67
2022/06/09 03:19:20;;;;;;;0.70;0.10;;;;;;;26.25;46.37;99602.22;5071476;28;20028;-67
2022/06/09 03:21:45;;;;;;;0.57;0.10;;;;;;;26.24;46.49;99597.94;5071481;28;20025;-67
2022/06/09 03:24:11;;;;;;;0.28;0.00;;;;;;;26.24;46.54;99605.94;5071360;28;20016;-67
2022/06/09 03:26:36;;;;;;;1.42;0.10;;;;;;;26.24;46.57;99616.63;5071054;28;20425;-67
2022/06/09 03:29:02;;;;;;;0.22;0.00;;;;;;;26.24;46.58;99621.97;5071191;28;20024;-67
2022/06/09 03:31:28;;;;;;;0.40;0.10;;;;;;;26.23;46.59;99626.50;5071262;28;20066;-67
2022/06/09 03:33:53;;;;;;;0.60;0.10;;;;;;;26.22;46.67;99608.09;5071295;28;20083;-67
2022/06/09 03:36:19;;;;;;;1.90;0.10;;;;;;;26.22;46.75;99608.09;5071158;28;20027;-67
2022/06/09 03:38:44;;;;;;;0.40;0.10;;;;;;;26.20;46.78;99597.69;5070922;28;20093;-67
2022/06/09 03:41:10;;;;;;;1.35;0.08;;;;;;;26.21;46.65;99606.50;5071212;28;20036;-67
2022/06/09 03:43:35;;;;;;;0.40;0.10;;;;;;;26.18;46.71;99597.13;5071024;28;20036;-67
2022/06/09 03:46:02;;;;;;;0.70;0.00;;;;;;;26.18;46.95;99597.13;5071107;28;20032;-67
2022/06/09 03:48:28;;;;;;;0.17;0.10;;;;;;;26.17;46.95;99606.22;5070283;28;20043;-67
2022/06/09 03:50:54;;;;;;;0.98;0.00;;;;;;;26.16;47.08;99609.97;5070898;28;20508;-67
2022/06/09 03:53:20;;;;;;;1.45;0.10;;;;;;;26.17;46.99;99611.56;5070703;28;20024;-67
2022/06/09 03:55:46;;;;;;;1.48;0.10;;;;;;;26.16;47.09;99607.28;5070626;28;20749;-67
2022/06/09 03:58:11;;;;;;;1.88;0.10;;;;;;;26.15;47.51;99618.22;5070746;28;20032;-67
2022/06/09 04:00:37;;;;;;;0.43;0.20;;;;;;;26.15;47.69;99621.69;5070428;28;20040;-68
2022/06/09 04:03:03;;;;;;;0.77;0.10;;;;;;;26.15;47.82;99628.91;5071139;28;20116;-67
2022/06/09 04:05:30;;;;;;;0.40;0.10;;;;;;;26.13;47.97;99621.97;5070991;28;20090;-67
2022/06/09 04:07:57;;;;;;;1.40;0.17;;;;;;;26.13;48.20;99632.66;5070532;28;20063;-68
2022/06/09 04:10:26;;;;;;;0.45;0.10;;;;;;;26.15;48.13;99655.59;5070950;28;20025;-68
2022/06/09 04:12:52;;;;;;;0.88;0.20;;;;;;;26.13;48.14;99675.34;5070228;28;20036;-68
2022/06/09 04:15:19;;;;;;;0.55;0.00;;;;;;;26.13;48.32;99670.00;5070814;28;20028;-68
2022/06/09 04:17:45;;;;;;;0.57;0.10;;;;;;;26.14;48.19;99673.50;5070585;28;20090;-68
2022/06/09 04:20:12;;;;;;;0.38;0.00;;;;;;;26.15;48.17;99650.25;5070659;28;20033;-68
2022/06/09 04:22:38;;;;;;;1.50;0.20;;;;;;;26.14;47.86;99646.78;5070288;28;20043;-67
2022/06/09 04:25:04;;;;;;;0.85;0.10;;;;;;;26.14;48.08;99654.81;5070452;28;20024;-68
2022/06/09 04:27:29;;;;;;;1.05;0.10;;;;;;;26.12;48.13;99660.41;5070175;28;20119;-68
2022/06/09 04:29:57;;;;;;;1.85;0.10;;;;;;;26.13;47.87;99674.56;5070810;28;20435;-67
2022/06/09 04:32:23;;;;;;;1.55;0.10;;;;;;;26.13;48.05;99679.91;5069982;28;20518;-68
2022/06/09 04:34:48;;;;;;;0.68;0.10;;;;;;;26.13;47.82;99677.22;5070113;28;20123;-67
2022/06/09 04:37:14;;;;;;;1.17;0.10;;;;;;;26.12;48.11;99676.41;5069795;28;20107;-68
2022/06/09 04:39:40;;;;;;;0.10;0.00;;;;;;;26.13;47.99;99663.88;5070008;28;20432;-67
2022/06/09 04:42:06;;;;;;;0.20;0.00;;;;;;;26.13;47.98;99675.34;5069907;28;20564;-68
2022/06/09 04:44:31;;;;;;;0.85;0.00;;;;;;;26.12;47.97;99687.09;5069709;28;20108;-68
2022/06/09 04:46:57;;;;;;;1.98;0.10;;;;;;;26.13;47.76;99706.59;5069770;28;20028;-68
2022/06/09 04:49:22;;;;;;;0.05;0.00;;;;;;;26.12;47.83;99719.13;5069827;28;20024;-68
2022/06/09 04:51:47;;;;;;;0.25;0.00;;;;;;;26.12;47.66;99732.47;5069643;28;20060;-68
2022/06/09 04:54:13;;;;;;;0.38;0.10;;;;;;;26.12;47.65;99737.81;5069789;28;20598;-67
2022/06/09 04:56:38;;;;;;;1.05;0.00;;;;;;;26.12;47.59;99727.13;5069629;28;20064;-67
2022/06/09 04:59:04;;;;;;;0.20;0.00;;;;;;;26.12;47.43;99705.78;5068460;28;20064;-67
2022/06/09 05:01:31;;;;;;;0.30;0.00;;;;;;;26.11;47.43;99696.16;5069681;28;20031;-70
2022/06/09 05:03:58;;;;;;;1.58;0.05;;;;;;;26.11;47.52;99698.84;5069652;28;20120;-70
2022/06/09 05:06:25;;;;;;;0.40;0.00;;;;;;;26.13;47.44;99695.91;5069685;28;20033;-70
2022/06/09 05:08:53;;;;;;;1.58;0.10;;;;;;;26.13;47.06;99694.03;5069744;28;20047;-67
2022/06/09 05:11:20;;;;;;;0.70;0.05;;;;;;;26.12;47.25;99689.78;5069419;28;20031;-67
2022/06/09 05:13:46;;;;;;;1.40;0.13;;;;;;;26.15;47.35;99684.97;5069301;28;20036;-68
2022/06/09 05:16:12;;;;;;;0.50;0.00;;;;;;;26.15;47.27;99666.28;5069508;28;20100;-67
2022/06/09 05:18:38;;;;;;;0.28;0.00;;;;;;;26.13;47.36;99664.69;5069038;28;20103;-68
2022/06/09 05:21:05;;;;;;;2.22;0.10;;;;;;;26.15;47.35;99682.28;5069076;28;20028;-67
2022/06/09 05:23:30;;;;;;;0.10;0.00;;;;;;;26.13;47.46;99690.56;5069561;28;20060;-69
2022/06/09 05:25:58;;;;;;;0.55;0.00;;;;;;;26.13;47.34;99702.06;5069277;28;20527;-69
2022/06/09 05:28:25;;;;;;;1.17;0.00;;;;;;;26.13;47.60;99702.06;5069190;28;20028;-69
2022/06/09 05:30:51;;;;;;;0.57;0.00;;;;;;;26.11;47.42;99690.84;5069034;28;20538;-69
2022/06/09 05:33:17;;;;;;;0.28;0.00;;;;;;;26.11;47.46;99695.38;5068835;28;20029;-69
2022/06/09 05:35:42;;;;;;;1.38;0.00;;;;;;;26.13;47.43;99706.59;5068630;28;20069;-68
2022/06/09 05:46:25;;;;;;;0.82;0.00;;;;;;;26.09;47.81;99702.84;5068671;28;20195;-68
2022/06/09 05:48:51;;;;;;;0.65;0.10;;;;;;;26.10;47.71;99717.78;5068818;28;20559;-68
2022/06/09 05:51:17;;;;;;;2.15;0.00;;;;;;;26.10;47.94;99729.28;5068797;28;20024;-70
2022/06/09 05:53:43;;;;;;;0.65;0.00;;;;;;;26.12;47.87;99727.13;5068505;28;20043;-70
2022/06/09 05:56:09;;;;;;;0.73;0.00;;;;;;;26.09;47.87;99719.66;5069044;28;20028;-70
2022/06/09 05:58:35;;;;;;;0.77;0.10;;;;;;;26.09;48.04;99714.31;5068431;28;20097;-70
2022/06/09 06:01:04;;;;;;;0.22;0.00;;;;;;;26.08;48.01;99715.38;5068949;28;20298;-70
2022/06/09 06:03:29;;;;;;;0.55;0.13;;;;;;;26.08;48.00;99717.25;5068743;28;20426;-70
2022/06/09 06:08:39;;;;;;;0.30;0.00;;;;;;;26.05;48.11;99707.91;5068297;28;20109;-68
2022/06/09 06:11:05;;;;;;;1.63;0.10;;;;;;;26.06;48.15;99716.72;5068146;28;20032;-68
2022/06/09 06:13:31;;;;;;;0.17;0.00;;;;;;;26.06;48.38;99706.03;5068390;28;20024;-68
2022/06/09 06:15:56;;;;;;;0.85;0.00;;;;;;;26.05;47.97;99704.44;5068544;28;20035;-68
2022/06/09 06:18:23;;;;;;;0.32;0.00;;;;;;;26.04;48.02;99694.81;5068541;28;20039;-68
2022/06/09 06:20:49;;;;;;;1.67;0.00;;;;;;;26.04;47.98;99690.28;5067155;28;20384;-70
2022/06/09 06:23:14;;;;;;;0.45;0.00;;;;;;;26.04;48.04;99682.28;5068309;28;20043;-70
2022/06/09 06:25:40;;;;;;;1.88;0.10;;;;;;;26.04;47.98;99676.13;5067933;28;20036;-72
2022/06/09 06:28:05;;;;;;;0.30;0.00;;;;;;;26.03;48.13;99678.00;5068195;28;20020;-70
2022/06/09 06:30:31;;;;;;;0.30;0.00;;;;;;;26.02;48.21;99684.41;5073957;28;20036;-70
2022/06/09 06:32:56;;;;;;;1.30;0.10;;;;;;;26.01;48.25;99698.81;5075354;28;20473;-71
2022/06/09 06:35:22;;;;;;;0.43;0.00;;;;;;;26.00;48.72;99689.22;5075015;28;20350;-70
2022/06/09 06:37:47;;;;;;;2.20;0.05;;;;;;;26.03;48.95;99686.00;5075044;28;20031;-71
2022/06/09 06:40:15;;;;;;;1.80;0.10;;;;;;;26.13;49.72;99685.22;5071245;28;20606;-70
2022/06/09 06:42:41;;;;;;;0.60;0.10;;;;;;;26.24;50.26;99680.72;5067830;28;20028;-71
2022/06/09 06:45:07;;;;;;;1.95;0.30;;;;;;;26.30;50.96;99674.31;5068068;28;20028;-72
2022/06/09 06:47:32;;;;;;;4.82;0.22;;;;;;;26.31;51.37;99671.41;5068316;28;20029;-70
2022/06/09 06:49:57;;;;;;;5.55;0.15;;;;;;;26.32;51.34;99672.19;5068481;28;20073;-69
2022/06/09 06:52:23;;;;;;;8.13;0.68;;;;;;;26.29;51.09;99665.50;5068149;28;20039;-69
2022/06/09 06:54:49;;;;;;;2.58;0.10;;;;;;;26.26;51.17;99662.56;5067790;28;20021;-69
2022/06/09 06:57:15;;;;;;;3.47;0.20;;;;;;;26.24;51.69;99662.81;5068135;28;20086;-69
2022/06/09 06:59:41;;;;;;;3.33;0.20;;;;;;;26.22;51.36;99662.28;5068006;28;20029;-69
2022/06/09 07:02:10;;;;;;;3.13;0.10;;;;;;;26.22;51.50;99661.47;5067655;28;20111;-69
2022/06/09 07:04:35;;;;;;;3.17;0.10;;;;;;;26.19;51.13;99652.13;5067971;28;20098;-68
2022/06/09 07:07:01;;;;;;;2.40;0.20;;;;;;;26.19;51.50;99656.69;5067658;28;20484;-69
2022/06/09 07:09:26;;;;;;;4.35;0.10;;;;;;;26.18;51.17;99655.88;5067737;28;20472;-70
2022/06/09 07:11:52;;;;;;;1.95;0.20;;;;;;;26.18;50.94;99650.53;5067961;28;20020;-69
2022/06/09 07:14:17;;;;;;;7.40;0.10;;;;;;;26.19;50.57;99654.81;5067605;28;20383;-68
2022/06/09 07:16:43;;;;;;;1.95;0.10;;;;;;;26.17;50.05;99651.59;5068304;28;20036;-69
2022/06/09 07:19:08;;;;;;;1.65;0.10;;;;;;;26.17;50.12;99648.94;5067705;28;20029;-69
2022/06/09 07:21:34;;;;;;;1.98;0.00;;;;;;;26.17;49.98;99648.94;5067761;28;20039;-69
2022/06/09 07:23:59;;;;;;;4.22;0.10;;;;;;;26.18;50.05;99641.72;5070689;28;20025;-69
2022/06/09 07:26:25;;;;;;;1.00;0.10;;;;;;;26.16;50.21;99641.19;5071461;28;20029;-68
2022/06/09 07:28:50;;;;;;;0.77;0.22;;;;;;;26.16;50.15;99641.19;5071554;28;20533;-69
2022/06/09 07:31:16;;;;;;;0.85;0.05;;;;;;;26.18;50.09;99633.72;5071268;28;20033;-68
2022/06/09 07:33:42;;;;;;;1.33;0.20;;;;;;;26.17;49.69;99621.44;5071111;28;20028;-69
2022/06/09 07:36:14;;;;;;;4.70;0.30;;;;;;;26.17;49.70;99618.75;5068348;28;20090;-69
2022/06/09 07:38:40;;;;;;;5.03;0.20;;;;;;;26.17;50.08;99613.44;5071013;28;20480;-68
2022/06/09 07:41:06;;;;;;;1.33;0.10;;;;;;;26.17;50.32;99613.44;5071348;28;20052;-69
2022/06/09 07:43:32;;;;;;;4.43;0.10;;;;;;;26.18;50.15;99612.34;5070884;28;20024;-69
2022/06/09 07:45:57;;;;;;;3.78;0.10;;;;;;;26.17;50.25;99600.06;5071048;28;20035;-69
2022/06/09 07:48:23;;;;;;;3.35;0.10;;;;;;;26.17;50.11;99603.53;5070645;28;20017;-69
2022/06/09 07:50:50;;;;;;;0.95;0.10;;;;;;;26.17;50.39;99602.75;5070662;28;20123;-68
2022/06/09 07:53:17;;;;;;;0.57;0.10;;;;;;;26.16;50.35;99595.81;5070642;28;20029;-69
2022/06/09 07:55:43;;;;;;;0.77;0.10;;;;;;;26.16;50.11;99599.28;5070657;28;20031;-69
2022/06/09 07:58:08;;;;;;;1.55;0.00;;;;;;;26.16;50.29;99591.28;5070920;28;20035;-69
2022/06/09 08:00:34;;;;;;;1.33;0.10;;;;;;;26.16;50.24;99588.59;5070757;28;20489;-68
2022/06/09 08:03:03;;;;;;;1.10;0.10;;;;;;;26.16;50.11;99582.47;5070945;28;20094;-69
2022/06/09 08:05:29;;;;;;;1.77;0.00;;;;;;;26.15;50.34;99575.53;5070680;28;20119;-71
2022/06/09 08:07:55;;;;;;;3.92;0.10;;;;;;;26.13;50.46;99570.44;5070484;28;20708;-68
2022/06/09 08:10:24;;;;;;;1.25;0.10;;;;;;;26.13;50.55;99578.47;5070783;28;20434;-71
2022/06/09 08:12:54;;;;;;;4.97;0.10;;;;;;;26.11;50.61;99584.06;5070765;28;20074;-70
2022/06/09 08:15:20;;;;;;;5.90;0.10;;;;;;;26.09;50.56;99572.06;5070444;28;20028;-71
2022/06/09 08:17:46;;;;;;;0.95;0.10;;;;;;;26.06;50.80;99568.03;5070428;28;20029;-69
2022/06/09 08:20:13;;;;;;;2.60;0.10;;;;;;;26.09;50.74;99577.38;5070154;28;20029;-68
2022/06/09 08:22:41;;;;;;;1.83;0.10;;;;;;;26.07;51.03;99574.19;5070336;28;20025;-68
2022/06/09 08:25:08;;;;;;;1.75;0.10;;;;;;;26.07;51.11;99572.31;5070132;28;20502;-69
2022/06/09 08:27:34;;;;;;;0.35;0.00;;;;;;;26.08;51.21;99575.78;5070272;28;20102;-69
2022/06/09 08:29:59;;;;;;;1.65;0.10;;;;;;;26.06;51.25;99576.06;5070357;28;20563;-69
2022/06/09 08:32:25;;;;;;;1.05;0.10;;;;;;;26.05;51.11;99574.44;5069900;28;20037;-69
2022/06/09 08:34:50;;;;;;;1.15;0.10;;;;;;;26.04;51.20;99577.38;5069559;28;20020;-69
2022/06/09 08:37:15;;;;;;;1.25;0.10;;;;;;;26.02;51.30;99579.53;5069970;28;20028;-67
2022/06/09 08:39:41;;;;;;;0.28;0.00;;;;;;;26.00;51.30;99590.47;5069934;28;20025;-70
2022/06/09 08:42:44;;;;;;;0.30;0.00;;;;;;;25.97;51.29;99590.22;5069780;28;20028;-69
2022/06/09 08:45:19;;;;;;;1.38;0.17;;;;;;;25.96;51.27;99591.28;5070065;28;20082;-70
2022/06/09 08:47:48;;;;;;;1.75;0.20;;;;;;;25.96;51.11;99589.41;5069944;28;20036;-69
2022/06/09 08:50:29;;;;;;;1.48;0.10;;;;;;;25.95;51.47;99598.50;5054082;22;20129;-72
2022/06/09 08:53:04;;;;;;;0.60;0.10;;;;;;;25.92;51.47;99607.03;5029742;28;20032;-73
2022/06/09 08:55:45;;;;;;;0.82;0.00;;;;;;;25.90;52.21;99616.38;5029993;28;20091;-72
2022/06/09 08:58:28;;;;;;;0.95;0.10;;;;;;;25.88;52.11;99608.63;5029727;28;20389;-72
2022/06/09 09:01:02;;;;;;;2.20;0.00;;;;;;;25.85;51.94;99606.50;5029919;28;20097;-73
2022/06/09 09:03:42;;;;;;;3.45;0.20;;;;;;;25.85;51.59;99608.34;5029601;28;20036;-72
2022/06/09 09:06:26;;;;;;;1.30;0.10;;;;;;;25.83;51.62;99613.94;5029512;28;20163;-72
2022/06/09 09:08:59;;;;;;;0.60;0.10;;;;;;;25.85;51.42;99619.03;5030020;28;20171;-71
2022/06/09 09:11:40;;;;;;;0.75;0.00;;;;;;;25.82;51.61;99625.69;5027319;28;20034;-72
2022/06/09 09:14:12;;;;;;;1.45;0.00;;;;;;;25.83;51.50;99632.63;5029420;28;20041;-71
2022/06/09 09:16:56;;;;;;;0.20;0.00;;;;;;;25.83;51.63;99637.16;5029375;28;20037;-71
2022/06/09 09:19:31;;;;;;;1.65;0.00;;;;;;;25.82;51.50;99633.69;5029292;28;20041;-71
2022/06/09 09:22:08;;;;;;;0.30;0.00;;;;;;;25.82;51.33;99631.03;5029218;28;20367;-71
2022/06/09 09:24:43;;;;;;;1.00;0.00;;;;;;;25.81;51.50;99634.75;5029409;28;20501;-71
2022/06/09 09:27:33;;;;;;;0.73;0.10;;;;;;;25.80;51.50;99635.81;5029885;28;20040;-71
2022/06/09 09:30:15;;;;;;;0.70;0.10;;;;;;;25.79;51.34;99632.34;5029320;28;20037;-71
2022/06/09 09:32:50;;;;;;;1.00;0.20;;;;;;;25.78;51.63;99635.28;5029232;28;20076;-70
2022/06/09 09:35:24;;;;;;;1.83;0.00;;;;;;;25.78;51.70;99636.09;5029009;28;20025;-71
2022/06/09 09:37:53;;;;;;;1.85;0.10;;;;;;;25.78;51.52;99641.44;5029353;28;20036;-71
2022/06/09 09:40:28;;;;;;;0.25;0.00;;;;;;;25.77;51.75;99623.81;5028882;28;20568;-71
2022/06/09 09:42:57;;;;;;;0.60;0.00;;;;;;;25.78;51.87;99635.28;5029132;28;20033;-71
2022/06/09 09:45:50;;;;;;;0.63;0.10;;;;;;;25.74;52.00;99637.69;5028388;28;20123;-71
2022/06/09 09:48:21;;;;;;;0.55;0.10;;;;;;;25.75;51.84;99646.47;5022414;28;20383;-71
2022/06/09 09:50:58;;;;;;;0.93;0.10;;;;;;;25.75;51.92;99641.94;5014841;28;20085;-71
2022/06/09 09:53:31;;;;;;;1.63;0.10;;;;;;;25.74;51.97;99628.88;5008839;28;20030;-71
2022/06/09 09:56:00;;;;;;;0.90;0.10;;;;;;;25.74;51.90;99644.88;5008875;28;20038;-71
2022/06/09 09:58:41;;;;;;;1.58;0.00;;;;;;;25.72;52.04;99647.00;5008959;28;20029;-71
2022/06/09 10:01:28;;;;;;;1.02;0.10;;;;;;;25.70;52.27;99651.81;5009130;28;20038;-71
2022/06/09 10:09:44;;;;;;;0.20;0.10;;;;;;;25.71;52.34;99651.53;5005421;28;20084;-72
2022/06/09 10:12:16;;;;;;;0.28;0.10;;;;;;;25.72;52.72;99644.34;5009129;28;20037;-74
2022/06/09 10:14:58;;;;;;;0.57;0.10;;;;;;;25.73;52.68;99651.28;5008506;28;20045;-72
2022/06/09 10:17:48;;;;;;;0.73;0.10;;;;;;;25.70;52.73;99657.94;5008580;28;20041;-71
2022/06/09 10:20:14;;;;;;;0.60;0.05;;;;;;;25.73;52.49;99653.94;5008631;28;20025;-73
2022/06/09 10:22:41;;;;;;;0.65;0.10;;;;;;;25.75;52.70;99651.81;5008601;28;20540;-74
2022/06/09 10:25:20;;;;;;;0.30;0.10;;;;;;;25.73;52.72;99648.63;5008333;28;20021;-72
2022/06/09 10:27:49;;;;;;;0.95;0.08;;;;;;;25.76;52.76;99648.09;5008584;28;20521;-73
2022/06/09 10:30:28;;;;;;;1.50;0.10;;;;;;;25.74;52.91;99652.88;5008667;28;20073;-73
2022/06/09 10:33:18;;;;;;;0.85;0.10;;;;;;;25.73;52.86;99656.63;5008515;28;20052;-74
2022/06/09 10:35:58;;;;;;;0.80;0.10;;;;;;;25.73;53.02;99659.28;4999738;28;20033;-72
2022/06/09 10:38:35;;;;;;;1.70;0.10;;;;;;;25.71;52.86;99664.88;5002286;28;20284;-73
2022/06/09 10:41:04;;;;;;;0.43;0.10;;;;;;;25.74;52.84;99663.56;4999047;28;20557;-72
2022/06/09 10:43:44;;;;;;;1.65;0.10;;;;;;;25.72;52.94;99668.34;5008482;28;20034;-71
2022/06/09 10:46:27;;;;;;;0.40;0.10;;;;;;;25.71;52.66;99672.09;5002371;28;20041;-72
2022/06/09 10:55:16;;;;;;;0.70;0.10;;;;;;;25.67;53.21;99676.34;4988538;28;20045;-72
2022/06/09 10:58:06;;;;;;;1.95;0.10;;;;;;;25.65;53.14;99670.47;4990063;28;20042;-74
2022/06/09 11:00:41;;;;;;;5.80;0.10;;;;;;;25.66;53.55;99672.06;4992461;28;20521;-72
2022/06/09 11:03:11;;;;;;;;;;;;;;;25.59;53.99;99674.16;4993140;28;20022;-71
2022/06/09 11:05:42;;;;;;;0.60;0.00;;;;;;;25.63;53.42;99688.56;4992258;28;20433;-70
2022/06/09 11:08:37;;;;;;;4.13;0.10;;;;;;;25.66;53.31;99674.72;4992283;28;20034;-70
2022/06/09 11:11:12;;;;;;;1.48;0.10;;;;;;;25.70;53.22;99691.81;4992176;28;20042;-71
2022/06/09 11:13:44;;;;;;;0.45;0.10;;;;;;;25.71;53.30;99683.56;4992316;28;20074;-72
2022/06/09 11:16:25;;;;;;;0.20;0.10;;;;;;;25.72;53.34;99673.69;4992230;28;20037;-72
2022/06/09 11:19:18;;;;;;;1.20;0.10;;;;;;;25.73;53.21;99685.97;4992661;28;20061;-71
2022/06/09 11:22:12;;;;;;;1.20;0.10;;;;;;;25.73;53.07;99670.75;4991997;28;20034;-71
2022/06/09 11:25:07;;;;;;;1.73;0.10;;;;;;;25.72;53.63;99679.81;4992104;28;20030;-73
2022/06/09 11:27:40;;;;;;;1.52;0.13;;;;;;;25.75;53.48;99683.84;4991840;28;20045;-71
2022/06/09 11:30:32;;;;;;;0.70;0.10;;;;;;;25.75;53.93;99686.50;4991981;28;20487;-71
2022/06/09 11:33:15;;;;;;;1.70;0.20;;;;;;;25.74;54.16;99680.38;4991828;28;20034;-72
2022/06/09 11:36:05;;;;;;;1.20;0.10;;;;;;;25.75;54.13;99684.63;4992462;28;20031;-70
2022/06/09 11:38:39;;;;;;;2.92;0.10;;;;;;;25.76;54.23;99685.44;4996495;28;20089;-73
2022/06/09 11:41:20;;;;;;;2.63;0.10;;;;;;;25.75;54.35;99679.31;5006230;28;20120;-71
2022/06/09 11:44:17;;;;;;;2.83;0.00;;;;;;;25.74;54.55;99680.38;5003324;28;20037;-71
2022/06/09 11:46:43;;;;;;;1.10;0.10;;;;;;;25.77;54.22;99684.38;4994997;28;20053;-72
2022/06/09 11:49:26;;;;;;;0.85;0.10;;;;;;;25.74;54.48;99683.03;5008396;28;20121;-71
2022/06/09 11:51:52;;;;;;;0.57;0.10;;;;;;;25.75;54.48;99687.31;4991845;28;20038;-73
2022/06/09 11:54:53;;;;;;;0.20;0.03;;;;;;;25.72;54.22;99690.50;5006280;28;20046;-72
2022/06/09 11:57:25;;;;;;;0.45;0.03;;;;;;;25.73;54.35;99699.31;5000824;28;20040;-71
2022/06/09 11:59:55;;;;;;;0.22;0.05;;;;;;;25.72;54.23;99703.03;5011303;28;20029;-71
2022/06/09 12:03:09;;;;;;;0.93;0.10;;;;;;;25.70;54.34;99707.81;5012786;28;20030;-70
2022/06/09 12:05:50;;;;;;;0.68;0.15;;;;;;;25.68;54.34;99700.09;5005737;28;20095;-72
2022/06/09 12:08:40;;;;;;;1.02;0.10;;;;;;;25.68;54.26;99701.94;5010552;28;20084;-72
2022/06/09 12:11:18;;;;;;;0.50;0.10;;;;;;;25.67;54.48;99703.00;5011462;28;20018;-72
2022/06/09 12:14:00;;;;;;;0.93;0.17;;;;;;;25.67;54.44;99716.34;5012200;28;20545;-72